Time;durP1;ratioP1;P1;durP2;ratioP2;P2;SDS_P1;SDS_P2;PMS_P1;PMS_P2;Temp;Humidity;BMP_temperature;BMP_pressure;BME280_temperature;BME280_humidity;BME280_pressure;Samples;Min_cycle;Max_cycle;Signal;HPM_P1;HPM_P2
2021/05/14 00:01:28;;;;;;;24.52;12.73;;;;;;;12.57;100.00;99953.41;4999763;28;20034;-76
2021/05/14 00:03:53;;;;;;;26.38;12.55;;;;;;;12.46;100.00;99949.94;5006842;28;20083;-76
2021/05/14 00:06:19;;;;;;;29.17;12.02;;;;;;;12.53;100.00;99947.22;4999838;28;20403;-76
2021/05/14 00:08:44;;;;;;;23.73;11.82;;;;;;;12.36;100.00;99941.81;5003025;28;20061;-74
2021/05/14 00:11:10;;;;;;;26.50;12.63;;;;;;;12.47;100.00;99946.06;5000516;28;20523;-76
2021/05/14 00:13:35;;;;;;;27.80;12.85;;;;;;;12.48;100.00;99952.25;5003325;28;20093;-75
2021/05/14 00:16:01;;;;;;;25.25;12.77;;;;;;;12.42;100.00;99948.38;5003060;28;20030;-74
2021/05/14 00:18:27;;;;;;;25.23;12.35;;;;;;;12.50;100.00;99952.63;5006259;28;20034;-75
2021/05/14 00:20:52;;;;;;;28.27;13.60;;;;;;;12.24;100.00;99948.34;5006307;28;20041;-76
2021/05/14 00:23:17;;;;;;;23.30;12.40;;;;;;;12.26;100.00;99953.34;5009605;28;20112;-75
2021/05/14 00:25:43;;;;;;;21.35;11.40;;;;;;;12.44;100.00;99946.06;4996074;28;20046;-74
2021/05/14 00:28:09;;;;;;;26.13;11.90;;;;;;;12.45;100.00;99944.88;5008553;28;20107;-75
2021/05/14 00:30:34;;;;;;;25.48;11.68;;;;;;;12.29;100.00;99939.09;4998829;28;20149;-75
2021/05/14 00:33:00;;;;;;;22.42;10.70;;;;;;;12.35;100.00;99943.72;5005142;28;20061;-76
2021/05/14 00:35:26;;;;;;;23.65;11.43;;;;;;;12.37;100.00;99941.41;5004048;28;20038;-74
2021/05/14 00:37:51;;;;;;;20.70;10.85;;;;;;;12.29;100.00;99933.69;4998897;28;20034;-74
2021/05/14 00:40:17;;;;;;;23.95;10.73;;;;;;;12.26;100.00;99942.53;5007602;28;20040;-74
2021/05/14 00:42:42;;;;;;;23.40;10.93;;;;;;;12.36;100.00;99939.09;4996088;28;20080;-74
2021/05/14 00:45:09;;;;;;;19.52;10.30;;;;;;;12.36;100.00;99939.88;5000657;28;20062;-74
2021/05/14 00:47:35;;;;;;;23.20;10.55;;;;;;;12.41;100.00;99939.47;5005053;28;20041;-74
2021/05/14 00:50:01;;;;;;;25.70;9.77;;;;;;;12.27;100.00;99936.75;5001052;28;20439;-74
2021/05/14 00:52:27;;;;;;;23.23;11.75;;;;;;;12.26;100.00;99943.31;5013205;28;20487;-73
2021/05/14 00:54:53;;;;;;;21.55;10.00;;;;;;;12.12;100.00;99946.00;5010222;28;20025;-74
2021/05/14 00:57:19;;;;;;;20.58;10.73;;;;;;;11.87;100.00;99944.38;5011764;28;20034;-73
2021/05/14 00:59:46;;;;;;;22.65;9.90;;;;;;;11.90;100.00;99938.22;5010680;28;20021;-74
2021/05/14 01:02:13;;;;;;;21.23;10.55;;;;;;;11.99;100.00;99947.50;5007312;28;20058;-73
2021/05/14 01:04:39;;;;;;;20.50;10.13;;;;;;;12.10;100.00;99944.84;5002693;28;20105;-73
2021/05/14 01:07:05;;;;;;;19.38;9.50;;;;;;;12.02;100.00;99941.34;5000334;28;20040;-74
2021/05/14 01:09:32;;;;;;;18.95;9.80;;;;;;;12.06;100.00;99942.13;4997871;28;20030;-74
2021/05/14 01:11:58;;;;;;;19.92;8.75;;;;;;;12.14;100.00;99934.81;5004857;28;20022;-74
2021/05/14 01:14:23;;;;;;;22.15;8.98;;;;;;;12.20;100.00;99935.97;5006475;28;20103;-73
2021/05/14 01:16:49;;;;;;;22.27;9.10;;;;;;;12.34;100.00;99942.19;5007670;28;20030;-74
2021/05/14 01:19:15;;;;;;;19.23;8.45;;;;;;;12.10;100.00;99931.34;5037543;22;20041;-75
2021/05/14 01:21:40;;;;;;;22.15;9.20;;;;;;;12.05;100.00;99929.78;5029192;28;20033;-75
2021/05/14 01:24:07;;;;;;;21.42;9.32;;;;;;;12.17;100.00;99934.84;5029194;28;20155;-74
2021/05/14 01:26:33;;;;;;;17.48;8.32;;;;;;;12.26;100.00;99937.16;5016017;28;20029;-75
2021/05/14 01:28:59;;;;;;;18.17;8.55;;;;;;;12.32;100.00;99932.91;5023987;28;20042;-75
2021/05/14 01:31:25;;;;;;;20.17;9.05;;;;;;;12.35;100.00;99924.06;5020150;28;20029;-75
2021/05/14 01:33:51;;;;;;;18.15;8.93;;;;;;;12.17;100.00;99925.97;5030323;28;20041;-75
2021/05/14 01:36:18;;;;;;;17.40;9.23;;;;;;;12.15;100.00;99922.88;5020021;28;20038;-75
2021/05/14 01:38:44;;;;;;;19.10;8.90;;;;;;;11.99;100.00;99920.50;5028631;28;20084;-75
2021/05/14 01:41:10;;;;;;;22.25;8.75;;;;;;;11.93;100.00;99926.66;5022316;28;20040;-75
2021/05/14 01:43:36;;;;;;;18.02;8.85;;;;;;;12.10;100.00;99924.00;5027267;28;20030;-75
2021/05/14 01:46:05;;;;;;;23.23;9.40;;;;;;;12.13;100.00;99934.06;5029746;28;20069;-75
2021/05/14 01:48:31;;;;;;;21.95;9.23;;;;;;;12.13;100.00;99931.34;5022480;28;20030;-74
2021/05/14 01:51:19;;;;;;;18.52;8.90;;;;;;;12.20;100.00;99930.56;5021424;28;20034;-75
2021/05/14 01:53:45;;;;;;;17.83;9.60;;;;;;;12.06;100.00;99931.31;5014647;28;20042;-75
2021/05/14 01:56:10;;;;;;;20.70;10.32;;;;;;;12.03;100.00;99929.41;5013147;28;20112;-74
2021/05/14 01:58:36;;;;;;;15.98;9.88;;;;;;;11.87;100.00;99926.25;5023387;28;20117;-75
2021/05/14 02:01:02;;;;;;;21.45;9.65;;;;;;;12.00;100.00;99919.34;5020630;28;20040;-75
2021/05/14 02:03:28;;;;;;;17.17;9.48;;;;;;;12.04;100.00;99922.09;5016419;28;20102;-75
2021/05/14 02:05:53;;;;;;;22.30;9.65;;;;;;;11.76;100.00;99917.38;5021473;28;20171;-75
2021/05/14 02:08:19;;;;;;;22.52;9.23;;;;;;;11.95;100.00;99911.63;5018785;28;20072;-75
2021/05/14 02:10:44;;;;;;;19.27;9.82;;;;;;;11.81;100.00;99914.28;5031307;28;20028;-74
2021/05/14 02:13:10;;;;;;;20.33;9.82;;;;;;;11.78;100.00;99921.25;5015939;28;20040;-76
2021/05/14 02:15:35;;;;;;;18.98;9.40;;;;;;;11.78;100.00;99920.47;5029721;28;20505;-74
2021/05/14 02:18:01;;;;;;;24.15;8.95;;;;;;;11.98;100.00;99918.22;5019831;28;20127;-76
2021/05/14 02:20:27;;;;;;;20.05;8.93;;;;;;;12.09;100.00;99919.00;5021275;28;20025;-76
2021/05/14 02:22:52;;;;;;;23.67;10.10;;;;;;;12.04;100.00;99922.09;5014661;28;20029;-76
2021/05/14 02:25:18;;;;;;;18.35;9.60;;;;;;;12.02;100.00;99924.38;5012078;28;20034;-76
2021/05/14 02:27:43;;;;;;;18.45;9.13;;;;;;;12.15;100.00;99917.47;5016038;28;20029;-75
2021/05/14 02:30:10;;;;;;;21.92;10.50;;;;;;;11.95;100.00;99913.56;5021771;28;20049;-75
2021/05/14 02:32:35;;;;;;;18.90;9.43;;;;;;;12.02;100.00;99916.28;5011500;28;20021;-76
2021/05/14 02:35:01;;;;;;;18.42;9.50;;;;;;;12.16;100.00;99911.69;5033242;28;20091;-75
2021/05/14 02:37:27;;;;;;;20.30;9.52;;;;;;;12.13;100.00;99915.16;5022682;28;20033;-76
2021/05/14 02:39:52;;;;;;;21.58;10.32;;;;;;;11.99;100.00;99920.50;5023616;28;20029;-75
2021/05/14 02:42:18;;;;;;;21.83;10.65;;;;;;;12.11;100.00;99914.00;5022577;28;20073;-76
2021/05/14 02:44:43;;;;;;;21.73;10.40;;;;;;;11.92;100.00;99909.72;5024448;28;20033;-76
2021/05/14 02:47:09;;;;;;;23.17;10.80;;;;;;;12.05;100.00;99908.19;5014968;28;20018;-75
2021/05/14 02:49:35;;;;;;;22.13;9.77;;;;;;;11.99;100.00;99917.81;5015695;28;20170;-76
2021/05/14 02:52:02;;;;;;;22.90;9.85;;;;;;;11.99;100.00;99914.34;5013166;28;20044;-76
2021/05/14 02:54:27;;;;;;;23.60;9.50;;;;;;;11.77;100.00;99918.91;5012583;28;20489;-76
2021/05/14 02:56:53;;;;;;;18.50;9.77;;;;;;;11.70;100.00;99922.38;5010198;28;20036;-75
2021/05/14 02:59:20;;;;;;;16.67;10.07;;;;;;;11.69;100.00;99915.41;5026196;28;20048;-76
2021/05/14 03:01:46;;;;;;;19.08;9.35;;;;;;;11.62;100.00;99922.66;5030093;28;20033;-75
2021/05/14 03:04:11;;;;;;;19.73;9.43;;;;;;;11.69;100.00;99922.75;5029664;28;20052;-74
2021/05/14 03:06:37;;;;;;;25.40;9.93;;;;;;;11.74;100.00;99920.44;5032895;28;20068;-76
2021/05/14 03:09:05;;;;;;;18.50;9.52;;;;;;;11.89;100.00;99904.28;5023732;28;20122;-75
2021/05/14 03:11:30;;;;;;;24.10;10.30;;;;;;;11.91;100.00;99901.97;5014755;28;20041;-75
2021/05/14 03:13:56;;;;;;;21.30;10.43;;;;;;;11.93;100.00;99910.47;5020113;28;20057;-75
2021/05/14 03:16:22;;;;;;;19.50;10.20;;;;;;;11.88;100.00;99908.16;5027735;28;20037;-75
2021/05/14 03:18:47;;;;;;;22.92;10.73;;;;;;;11.81;100.00;99906.19;5022950;28;20612;-75
2021/05/14 03:21:13;;;;;;;24.35;9.60;;;;;;;11.85;100.00;99904.28;5021967;28;20026;-75
2021/05/14 03:23:39;;;;;;;29.52;11.63;;;;;;;11.77;100.00;99908.88;5026209;28;20060;-76
2021/05/14 03:26:06;;;;;;;23.90;11.30;;;;;;;11.99;100.00;99904.31;5025771;28;20072;-76
2021/05/14 03:28:31;;;;;;;23.88;11.40;;;;;;;12.08;100.00;99896.63;5020292;28;20567;-76
2021/05/14 03:30:57;;;;;;;30.15;12.73;;;;;;;12.07;100.00;99900.50;5011756;28;20109;-76
2021/05/14 03:33:22;;;;;;;24.05;12.10;;;;;;;12.11;100.00;99895.88;5016140;28;20133;-76
2021/05/14 03:35:49;;;;;;;29.80;12.73;;;;;;;12.09;100.00;99898.19;5019138;28;20499;-76
2021/05/14 03:38:15;;;;;;;31.40;13.07;;;;;;;11.99;100.00;99896.22;5019684;28;20045;-76
2021/05/14 03:40:42;;;;;;;27.63;12.98;;;;;;;11.98;100.00;99902.03;5026291;28;20037;-76
2021/05/14 03:43:08;;;;;;;33.28;13.50;;;;;;;12.06;100.00;99903.59;5025948;28;20029;-76
2021/05/14 03:45:34;;;;;;;34.75;12.93;;;;;;;12.09;100.00;99895.47;5021101;28;20025;-76
2021/05/14 03:48:00;;;;;;;30.42;13.10;;;;;;;11.91;100.00;99902.75;5020599;28;20409;-76
2021/05/14 03:50:28;;;;;;;36.90;13.90;;;;;;;11.94;100.00;99902.00;5023882;28;20037;-76
2021/05/14 03:52:54;;;;;;;35.92;12.98;;;;;;;11.84;100.00;99910.84;5023903;28;20068;-75
2021/05/14 03:55:20;;;;;;;34.05;14.27;;;;;;;11.86;100.00;99899.66;5025251;28;20370;-75
2021/05/14 03:57:46;;;;;;;32.15;13.25;;;;;;;11.86;100.00;99913.94;5035699;28;20025;-75
2021/05/14 04:00:12;;;;;;;30.15;14.13;;;;;;;11.88;100.00;99908.16;5042521;28;20123;-75
2021/05/14 04:02:38;;;;;;;28.50;13.65;;;;;;;11.89;100.00;99913.16;5040920;28;20037;-75
2021/05/14 04:05:04;;;;;;;30.55;13.07;;;;;;;11.79;100.00;99916.59;5023033;28;20026;-75
2021/05/14 04:07:30;;;;;;;29.80;13.75;;;;;;;11.74;100.00;99923.16;5027227;28;20091;-75
2021/05/14 04:15:06;;;;;;;35.42;12.88;;;;;;;11.89;100.00;99917.78;5025974;28;20017;-75
2021/05/14 04:17:32;;;;;;;32.03;11.93;;;;;;;11.85;100.00;99906.97;5025209;28;20036;-75
2021/05/14 04:19:59;;;;;;;29.10;12.98;;;;;;;11.94;100.00;99910.13;5027745;28;20029;-76
2021/05/14 04:22:26;;;;;;;27.10;11.85;;;;;;;11.87;100.00;99906.59;5024028;28;20528;-76
2021/05/14 04:24:52;;;;;;;30.60;12.27;;;;;;;11.86;100.00;99913.94;5022518;28;20026;-75
2021/05/14 04:27:17;;;;;;;27.52;11.63;;;;;;;11.78;100.00;99915.06;5028060;28;20172;-76
2021/05/14 04:29:43;;;;;;;28.25;12.10;;;;;;;11.80;100.00;99923.56;5030874;28;20430;-75
2021/05/14 04:32:08;;;;;;;29.85;11.55;;;;;;;12.07;100.00;99911.28;5024765;28;20034;-76
2021/05/14 04:34:34;;;;;;;28.63;11.68;;;;;;;11.99;100.00;99907.03;5029300;28;20042;-75
2021/05/14 04:36:59;;;;;;;29.98;11.90;;;;;;;11.95;100.00;99902.75;5028150;28;20038;-75
2021/05/14 04:39:25;;;;;;;28.63;11.73;;;;;;;11.91;100.00;99908.16;5026994;28;20033;-75
2021/05/14 04:41:50;;;;;;;33.70;12.40;;;;;;;11.97;100.00;99912.03;5027962;28;20037;-76
2021/05/14 04:44:16;;;;;;;30.20;12.27;;;;;;;11.97;100.00;99901.25;5030989;28;20168;-75
2021/05/14 04:46:42;;;;;;;29.17;11.50;;;;;;;11.98;100.00;99910.88;5021782;28;20151;-76
2021/05/14 04:49:07;;;;;;;29.05;11.77;;;;;;;12.00;100.00;99905.84;5028164;28;20086;-76
2021/05/14 04:51:33;;;;;;;29.83;11.52;;;;;;;11.91;100.00;99901.97;5025999;28;20796;-75
2021/05/14 04:53:59;;;;;;;30.00;11.75;;;;;;;11.97;100.00;99900.47;5031068;28;20370;-75
2021/05/14 04:56:25;;;;;;;28.55;11.63;;;;;;;12.02;100.00;99895.44;5029838;28;20091;-75
2021/05/14 04:58:50;;;;;;;27.77;11.15;;;;;;;12.02;100.00;99898.16;5028065;28;20037;-75
2021/05/14 05:01:17;;;;;;;24.30;11.70;;;;;;;12.20;100.00;99901.66;5026411;28;20510;-75
2021/05/14 05:03:53;;;;;;;27.80;11.32;;;;;;;11.96;100.00;99905.09;5029344;28;20034;-75
2021/05/14 05:06:20;;;;;;;24.23;11.10;;;;;;;12.04;100.00;99903.19;5014756;28;20036;-75
2021/05/14 05:08:45;;;;;;;25.83;10.73;;;;;;;12.05;100.00;99905.50;5026752;28;20088;-75
2021/05/14 05:11:11;;;;;;;31.65;12.27;;;;;;;11.99;100.00;99904.31;5018664;28;20034;-75
2021/05/14 05:13:36;;;;;;;30.02;11.68;;;;;;;11.96;100.00;99905.09;5021264;28;20036;-75
2021/05/14 05:16:02;;;;;;;27.02;12.85;;;;;;;11.97;100.00;99912.03;5030247;28;20144;-75
2021/05/14 05:18:28;;;;;;;28.60;11.80;;;;;;;12.05;100.00;99907.41;5025030;28;20061;-75
2021/05/14 05:20:54;;;;;;;23.50;11.60;;;;;;;12.09;100.00;99908.19;5023059;28;20088;-75
2021/05/14 05:23:20;;;;;;;22.63;10.57;;;;;;;12.13;100.00;99912.47;5028813;28;20030;-76
2021/05/14 05:25:45;;;;;;;27.45;10.70;;;;;;;12.14;100.00;99914.00;5010508;28;20044;-75
2021/05/14 05:28:11;;;;;;;37.00;11.45;;;;;;;12.03;100.00;99913.22;5022881;28;20104;-75
2021/05/14 05:30:36;;;;;;;21.70;9.68;;;;;;;11.92;100.00;99919.72;5022316;28;20040;-75
2021/05/14 05:33:02;;;;;;;24.60;9.73;;;;;;;11.95;100.00;99927.03;5035685;28;20043;-75
2021/05/14 05:35:27;;;;;;;21.67;10.05;;;;;;;11.99;100.00;99930.53;5019585;28;20980;-75
2021/05/14 05:37:54;;;;;;;18.73;9.32;;;;;;;11.96;100.00;99924.00;5024915;28;20045;-75
2021/05/14 05:40:20;;;;;;;23.98;9.02;;;;;;;11.97;100.00;99933.63;5029006;28;20026;-75
2021/05/14 05:42:46;;;;;;;26.55;10.55;;;;;;;11.88;100.00;99944.00;5026815;28;20034;-74
2021/05/14 05:45:12;;;;;;;27.33;10.00;;;;;;;12.03;100.00;99939.41;5021972;28;20113;-74
2021/05/14 05:47:38;;;;;;;20.20;9.30;;;;;;;12.09;100.00;99945.97;5032255;28;20116;-75
2021/05/14 05:50:05;;;;;;;22.88;8.77;;;;;;;12.06;100.00;99947.50;5015596;28;20029;-75
2021/05/14 05:52:31;;;;;;;21.92;9.10;;;;;;;12.10;100.00;99942.91;5028616;28;20094;-75
2021/05/14 05:54:56;;;;;;;18.67;8.63;;;;;;;12.06;100.00;99938.66;5020256;28;20109;-75
2021/05/14 05:57:21;;;;;;;21.35;8.80;;;;;;;12.12;100.00;99940.59;5034482;28;20049;-76
2021/05/14 05:59:47;;;;;;;23.90;8.40;;;;;;;12.00;100.00;99940.19;5034177;28;20033;-75
2021/05/14 06:02:12;;;;;;;20.77;8.70;;;;;;;12.21;100.00;99942.94;5017043;28;20402;-74
2021/05/14 06:04:39;;;;;;;23.20;8.80;;;;;;;12.18;100.00;99943.69;5024578;28;20041;-75
2021/05/14 06:07:05;;;;;;;32.58;9.50;;;;;;;12.15;99.88;99941.75;5018456;28;20034;-74
2021/05/14 06:09:30;;;;;;;20.27;8.23;;;;;;;12.09;100.00;99945.97;5010039;28;20040;-74
2021/05/14 06:11:56;;;;;;;29.17;8.23;;;;;;;12.05;100.00;99945.97;5021183;28;20478;-73
2021/05/14 06:14:21;;;;;;;27.80;7.97;;;;;;;12.02;100.00;99944.03;5017930;28;20107;-75
2021/05/14 06:16:47;;;;;;;20.38;8.40;;;;;;;12.19;99.67;99934.44;5020800;28;20034;-73
2021/05/14 06:19:16;;;;;;;21.52;7.78;;;;;;;12.34;99.48;99942.19;5023106;28;20121;-74
2021/05/14 06:21:47;;;;;;;23.02;8.38;;;;;;;12.29;98.55;99944.50;5027739;28;20486;-74
2021/05/14 06:24:17;;;;;;;21.42;7.70;;;;;;;12.23;99.08;99937.94;5014876;28;20044;-74
2021/05/14 06:26:44;;;;;;;21.20;8.20;;;;;;;12.15;99.45;99947.94;5011777;28;20029;-74
2021/05/14 06:29:11;;;;;;;23.75;8.18;;;;;;;12.21;97.32;99945.63;5009857;28;20107;-74
2021/05/14 06:31:36;;;;;;;21.95;7.82;;;;;;;12.22;97.78;99942.53;5023357;28;20506;-73
2021/05/14 06:34:03;;;;;;;25.02;7.32;;;;;;;12.28;97.82;99948.34;5020564;28;20034;-74
2021/05/14 06:36:28;;;;;;;19.42;7.60;;;;;;;12.07;98.35;99943.69;5024383;28;20029;-74
2021/05/14 06:38:54;;;;;;;24.42;9.13;;;;;;;12.31;98.53;99945.63;5020104;28;20033;-73
2021/05/14 06:41:19;;;;;;;22.90;8.30;;;;;;;12.26;98.67;99945.25;5017634;28;20112;-74
2021/05/14 06:43:45;;;;;;;23.75;8.35;;;;;;;12.44;98.15;99946.06;5016949;28;20037;-74
2021/05/14 06:46:11;;;;;;;20.38;8.35;;;;;;;12.34;98.00;99949.50;5015677;28;20506;-75
2021/05/14 06:48:37;;;;;;;24.52;8.65;;;;;;;12.26;99.46;99948.72;5015002;28;20036;-74
2021/05/14 06:51:03;;;;;;;20.20;8.50;;;;;;;12.39;98.66;99949.13;5016455;28;20064;-74
2021/05/14 06:53:29;;;;;;;23.23;8.20;;;;;;;12.60;97.11;99949.91;5015266;28;20523;-74
2021/05/14 06:55:54;;;;;;;23.35;8.07;;;;;;;12.46;97.75;99949.94;5019679;28;20112;-74
2021/05/14 06:58:20;;;;;;;23.13;8.38;;;;;;;12.41;97.86;99961.09;5023014;28;20064;-74
2021/05/14 07:00:46;;;;;;;16.55;7.53;;;;;;;12.44;97.41;99957.63;5020004;28;20044;-75
2021/05/14 07:03:11;;;;;;;27.10;8.55;;;;;;;12.34;97.50;99963.78;5027848;28;20120;-74
2021/05/14 07:05:37;;;;;;;20.50;7.25;;;;;;;12.41;96.40;99966.50;5016820;28;20030;-75
2021/05/14 07:08:02;;;;;;;21.70;7.03;;;;;;;12.51;96.40;99957.63;5014614;28;20065;-74
2021/05/14 07:10:29;;;;;;;19.55;7.03;;;;;;;12.31;96.70;99961.09;5018994;28;20037;-74
2021/05/14 07:12:54;;;;;;;28.17;7.38;;;;;;;12.29;97.25;99955.28;5015737;28;20042;-75
2021/05/14 07:15:20;;;;;;;19.98;6.95;;;;;;;12.43;96.29;99955.28;5011336;28;20083;-73
2021/05/14 07:17:46;;;;;;;19.00;6.22;;;;;;;12.27;96.17;99958.34;5019455;28;20686;-73
2021/05/14 07:20:12;;;;;;;17.60;6.40;;;;;;;12.40;96.00;99964.19;5053159;22;20047;-76
2021/05/14 07:22:39;;;;;;;15.10;6.07;;;;;;;12.51;94.79;99970.34;5056137;28;20028;-75
2021/05/14 07:25:06;;;;;;;21.85;6.82;;;;;;;12.27;94.91;99963.75;5053914;28;20028;-75
2021/05/14 07:27:31;;;;;;;12.77;6.05;;;;;;;12.17;96.40;99967.22;5057787;28;20047;-75
2021/05/14 07:29:57;;;;;;;15.05;6.45;;;;;;;12.26;96.16;99969.53;5039173;28;20025;-75
2021/05/14 07:32:23;;;;;;;14.48;6.10;;;;;;;12.28;95.97;99970.72;5040424;28;20029;-74
2021/05/14 07:34:48;;;;;;;20.63;7.13;;;;;;;12.38;95.53;99977.28;5039163;28;20402;-76
2021/05/14 07:37:14;;;;;;;17.98;7.70;;;;;;;12.41;95.94;99982.69;5039185;28;20412;-75
2021/05/14 07:39:41;;;;;;;23.90;7.43;;;;;;;12.40;95.83;99983.84;5022193;28;20465;-75
2021/05/14 07:42:07;;;;;;;20.05;6.78;;;;;;;12.39;95.78;99984.22;5024723;28;20129;-75
2021/05/14 07:44:32;;;;;;;17.45;6.35;;;;;;;12.39;96.94;99982.31;5041909;28;20123;-75
2021/05/14 07:46:58;;;;;;;17.50;6.50;;;;;;;12.36;97.00;99988.47;5020028;28;20396;-75
2021/05/14 07:49:24;;;;;;;16.60;6.53;;;;;;;12.28;97.36;99986.91;5048416;28;20033;-75
2021/05/14 07:51:50;;;;;;;16.80;6.70;;;;;;;12.35;97.58;99986.16;5048813;28;20033;-75
2021/05/14 07:54:15;;;;;;;19.85;6.82;;;;;;;12.44;96.79;99987.34;5025161;28;20044;-75
2021/05/14 07:56:41;;;;;;;16.95;6.53;;;;;;;12.44;96.46;99986.56;5023471;28;20409;-74
2021/05/14 07:59:06;;;;;;;19.52;6.70;;;;;;;12.48;96.65;99980.03;5041472;28;20041;-75
2021/05/14 08:01:32;;;;;;;21.45;7.35;;;;;;;12.53;96.44;99982.34;5043980;28;20029;-74
2021/05/14 08:03:58;;;;;;;16.00;6.63;;;;;;;12.49;97.13;99981.56;5027616;28;20033;-75
2021/05/14 08:06:24;;;;;;;15.55;6.63;;;;;;;12.56;97.42;99970.00;5025442;28;20051;-75
2021/05/14 08:08:50;;;;;;;23.98;7.32;;;;;;;12.65;96.46;99967.69;5028516;28;20033;-75
2021/05/14 08:11:16;;;;;;;12.00;6.45;;;;;;;12.78;95.65;99976.16;5045599;28;20559;-75
2021/05/14 08:13:41;;;;;;;21.10;7.00;;;;;;;12.75;96.05;99968.84;5038537;28;20033;-75
2021/05/14 08:16:07;;;;;;;16.50;6.60;;;;;;;12.97;94.46;99968.44;5047006;28;20110;-75
2021/05/14 08:18:34;;;;;;;21.33;7.32;;;;;;;13.01;93.40;99965.72;5042786;28;20079;-74
2021/05/14 08:20:59;;;;;;;24.10;8.07;;;;;;;12.93;93.88;99975.78;5044358;28;20156;-75
2021/05/14 08:23:25;;;;;;;26.13;8.27;;;;;;;12.83;95.11;99979.28;5046187;28;20532;-74
2021/05/14 08:25:51;;;;;;;21.00;8.05;;;;;;;12.85;95.94;99976.97;5037968;28;20128;-75
2021/05/14 08:28:17;;;;;;;24.35;7.82;;;;;;;12.66;96.51;99975.38;5020508;28;20029;-75
2021/05/14 08:30:45;;;;;;;26.00;9.27;;;;;;;12.82;96.11;99987.75;5038058;28;20120;-75
2021/05/14 08:33:10;;;;;;;24.17;8.93;;;;;;;12.81;95.93;99991.63;5009991;28;20057;-76
2021/05/14 08:35:37;;;;;;;23.27;8.57;;;;;;;12.75;97.16;99985.06;5039317;28;20512;-75
2021/05/14 08:38:04;;;;;;;20.60;8.38;;;;;;;12.82;96.32;99988.53;5036147;28;20037;-75
2021/05/14 08:40:30;;;;;;;19.58;7.55;;;;;;;12.80;96.08;99996.25;5036085;28;20030;-74
2021/05/14 08:42:56;;;;;;;20.15;7.40;;;;;;;12.75;95.88;99991.22;5012339;28;20627;-80
2021/05/14 08:45:22;;;;;;;27.63;7.82;;;;;;;12.64;96.43;99999.31;5042146;28;20555;-74
2021/05/14 08:47:48;;;;;;;20.20;7.03;;;;;;;12.55;96.75;99996.22;5038094;28;20024;-75
2021/05/14 08:50:13;;;;;;;27.55;7.63;;;;;;;12.55;97.36;99998.94;5018209;28;20152;-74
2021/05/14 08:52:42;;;;;;;24.13;8.23;;;;;;;12.67;96.18;100003.19;5034973;28;20505;-74
2021/05/14 08:55:09;;;;;;;21.10;7.80;;;;;;;12.60;96.42;100003.19;5037691;28;20038;-75
2021/05/14 08:57:35;;;;;;;24.25;8.68;;;;;;;12.50;97.38;99999.28;5024989;28;20107;-73
2021/05/14 09:00:01;;;;;;;20.83;8.02;;;;;;;12.60;96.43;100003.94;5020360;28;20461;-74
2021/05/14 09:02:26;;;;;;;24.13;7.93;;;;;;;12.51;96.98;100003.56;5044092;28;20073;-75
2021/05/14 09:04:52;;;;;;;18.83;8.15;;;;;;;12.59;96.60;100002.41;5037656;28;20060;-74
2021/05/14 09:07:19;;;;;;;23.67;8.35;;;;;;;12.72;95.92;100007.44;5038682;28;20045;-74
2021/05/14 09:10:05;;;;;;;17.63;8.50;;;;;;;12.62;96.40;100012.44;5031195;28;20116;-75
2021/05/14 09:12:41;;;;;;;22.70;8.82;;;;;;;12.57;97.58;100012.81;5038039;28;20511;-74
2021/05/14 09:15:29;;;;;;;24.80;8.52;;;;;;;12.80;95.87;100023.25;5026540;28;20087;-74
2021/05/14 09:18:17;;;;;;;20.17;8.00;;;;;;;12.69;95.98;100007.06;5042844;28;20033;-74
2021/05/14 09:20:56;;;;;;;23.92;8.68;;;;;;;12.67;96.73;100024.81;5040509;28;20022;-74
2021/05/14 09:23:27;;;;;;;16.77;8.13;;;;;;;12.52;98.43;100015.13;5042601;28;20124;-74
2021/05/14 09:26:00;;;;;;;25.30;9.00;;;;;;;12.65;96.35;100019.00;5021372;28;20029;-74
2021/05/14 09:28:27;;;;;;;24.85;9.15;;;;;;;12.59;98.28;100026.72;5026040;28;20112;-73
2021/05/14 09:31:33;;;;;;;23.23;10.32;;;;;;;12.61;98.23;100021.72;5036524;28;20451;-74
2021/05/14 09:34:00;;;;;;;27.95;9.88;;;;;;;12.59;98.30;100032.13;5017238;28;20123;-74
2021/05/14 09:36:35;;;;;;;24.30;9.43;;;;;;;12.30;100.00;100027.81;5036503;28;20034;-73
2021/05/14 09:39:08;;;;;;;17.92;8.43;;;;;;;12.48;98.43;100033.25;5038804;28;20040;-73
2021/05/14 09:41:39;;;;;;;19.67;8.23;;;;;;;12.39;98.79;100039.00;5034371;28;20029;-74
2021/05/14 09:44:14;;;;;;;19.38;8.10;;;;;;;12.29;100.00;100036.28;5031289;28;20091;-73
2021/05/14 09:46:39;;;;;;;19.83;7.78;;;;;;;12.34;99.32;100034.00;5018025;28;20041;-73
2021/05/14 09:49:13;;;;;;;25.77;8.10;;;;;;;12.34;99.13;100039.38;5008967;28;22053;-73
2021/05/14 09:51:58;;;;;;;19.73;7.68;;;;;;;12.38;98.04;100036.69;5039751;28;20053;-74
2021/05/14 09:54:32;;;;;;;17.20;8.45;;;;;;;12.36;98.09;100041.69;5040733;28;20029;-73
2021/05/14 09:57:14;;;;;;;18.42;7.82;;;;;;;12.35;97.75;100040.91;5038916;28;20033;-74
2021/05/14 09:59:40;;;;;;;19.23;7.20;;;;;;;12.31;97.12;100052.88;5042699;28;20044;-73
2021/05/14 10:02:29;;;;;;;19.38;7.47;;;;;;;12.20;96.93;100050.13;5033141;28;20033;-73
2021/05/14 10:04:56;;;;;;;16.17;7.13;;;;;;;12.20;96.33;100041.25;5036503;28;20074;-74
2021/05/14 10:07:26;;;;;;;16.25;7.22;;;;;;;12.23;97.05;100043.22;5042994;28;20045;-74
2021/05/14 10:10:11;;;;;;;16.15;6.82;;;;;;;12.18;97.79;100044.34;5022443;28;20033;-72
2021/05/14 10:12:37;;;;;;;22.35;6.93;;;;;;;12.15;97.53;100045.13;5024883;28;20028;-73
2021/05/14 10:15:06;;;;;;;20.23;8.15;;;;;;;12.17;97.21;100048.22;5040144;28;20036;-73
2021/05/14 10:17:31;;;;;;;17.65;7.70;;;;;;;12.24;95.67;100044.75;5042793;28;20098;-74
2021/05/14 10:19:59;;;;;;;16.50;7.05;;;;;;;12.29;95.67;100047.09;5038558;28;20025;-74
2021/05/14 10:22:27;;;;;;;21.65;7.85;;;;;;;12.23;96.43;100049.34;5024534;28;20410;-73
2021/05/14 10:24:57;;;;;;;16.65;7.95;;;;;;;12.21;97.36;100040.91;5041752;28;20116;-73
2021/05/14 10:27:26;;;;;;;20.73;7.30;;;;;;;12.28;97.54;100040.91;5033331;28;20124;-73
2021/05/14 10:29:54;;;;;;;18.75;8.20;;;;;;;12.14;99.46;100053.56;5027178;28;20409;-73
2021/05/14 10:32:47;;;;;;;14.55;7.60;;;;;;;11.99;100.00;100039.25;5031631;28;20025;-73
2021/05/14 10:35:30;;;;;;;16.85;8.13;;;;;;;11.95;100.00;100040.38;5037720;28;20029;-73
2021/05/14 10:38:04;;;;;;;21.50;8.13;;;;;;;12.04;100.00;100040.81;5040395;28;20070;-73
2021/05/14 10:40:30;;;;;;;21.42;9.02;;;;;;;12.05;100.00;100047.75;5041288;28;20057;-73
2021/05/14 10:43:12;;;;;;;25.40;8.95;;;;;;;12.07;100.00;100040.84;5043119;28;20033;-74
2021/05/14 10:45:40;;;;;;;20.77;8.60;;;;;;;11.94;100.00;100047.72;5046501;28;20036;-73
2021/05/14 10:48:18;;;;;;;17.25;9.00;;;;;;;11.99;100.00;100043.88;5046933;28;20032;-72
2021/05/14 10:50:57;;;;;;;24.60;9.93;;;;;;;12.00;100.00;100040.78;5033914;28;20048;-73
2021/05/14 10:53:31;;;;;;;23.35;10.07;;;;;;;11.99;100.00;100041.94;5041642;28;20496;-73
2021/05/14 10:56:09;;;;;;;19.45;9.90;;;;;;;11.91;100.00;100047.69;5036118;28;20037;-73
2021/05/14 10:58:37;;;;;;;25.02;9.57;;;;;;;11.87;100.00;100052.28;5026695;28;20032;-73
2021/05/14 11:01:04;;;;;;;21.00;10.13;;;;;;;12.00;100.00;100062.38;5018752;28;20020;-74
2021/05/14 11:03:31;;;;;;;23.83;9.95;;;;;;;12.11;100.00;100057.81;5022067;28;20213;-74
2021/05/14 11:06:18;;;;;;;25.40;11.38;;;;;;;12.07;100.00;100061.66;5035187;28;20646;-74
2021/05/14 11:09:00;;;;;;;32.15;10.23;;;;;;;11.97;100.00;100059.66;5028886;28;20029;-73
2021/05/14 11:11:26;;;;;;;23.08;11.55;;;;;;;12.02;100.00;100054.69;5030436;28;20025;-73
2021/05/14 11:13:51;;;;;;;28.15;11.50;;;;;;;11.76;100.00;100063.03;5040386;28;20059;-74
2021/05/14 11:16:43;;;;;;;24.38;11.25;;;;;;;11.93;100.00;100054.25;5047145;28;20095;-74
2021/05/14 11:19:10;;;;;;;;;;;;;;;11.97;100.00;100065.84;5043155;28;20123;-73
2021/05/14 11:22:09;;;;;;;22.88;10.75;;;;;;;11.84;100.00;100066.53;5045273;28;19916;-73
2021/05/14 11:24:49;;;;;;;27.90;11.73;;;;;;;11.90;100.00;100070.44;5025659;28;20119;-73